createdAt,value
2023-04-21T00:00:55.797Z,9.95
2023-04-21T00:03:24.514Z,10.02
2023-04-21T00:05:51.979Z,9.99
2023-04-21T00:08:19.509Z,9.97
2023-04-21T00:10:49.286Z,10.04
2023-04-21T00:13:16.105Z,9.92
2023-04-21T00:15:42.819Z,9.94
2023-04-21T00:18:09.946Z,10.01
2023-04-21T00:20:37.065Z,10.01
2023-04-21T00:23:04.093Z,9.99
2023-04-21T00:25:30.901Z,9.93
2023-04-21T00:27:57.775Z,9.89
2023-04-21T00:30:24.706Z,9.84
2023-04-21T00:32:51.565Z,9.86
2023-04-21T00:35:18.385Z,9.92
2023-04-21T00:37:45.376Z,9.98
2023-04-21T00:40:13.722Z,9.97
2023-04-21T00:42:40.730Z,10.01
2023-04-21T00:45:07.877Z,9.97
2023-04-21T00:47:34.617Z,10.01
2023-04-21T00:50:03.242Z,9.98
2023-04-21T00:52:31.126Z,10.00
2023-04-21T00:54:58.006Z,9.99
2023-04-21T00:57:25.500Z,9.96
2023-04-21T00:59:52.640Z,10.01
2023-04-21T01:02:20.001Z,9.97
2023-04-21T01:04:46.776Z,9.99
2023-04-21T01:07:13.890Z,9.92
2023-04-21T01:09:40.819Z,9.92
2023-04-21T01:12:09.538Z,9.87
2023-04-21T01:14:37.893Z,9.91
2023-04-21T01:17:06.350Z,9.86
2023-04-21T01:19:41.704Z,9.80
2023-04-21T01:22:11.286Z,9.81
2023-04-21T01:24:47.312Z,9.75
2023-04-21T01:27:20.559Z,9.78
2023-04-21T01:29:49.922Z,9.69
2023-04-21T01:32:23.331Z,9.70
2023-04-21T01:34:50.583Z,9.51
2023-04-21T01:37:21.389Z,9.46
2023-04-21T01:39:55.176Z,9.39
2023-04-21T01:42:23.988Z,9.29
2023-04-21T01:44:51.324Z,9.22
2023-04-21T01:47:18.777Z,9.21
2023-04-21T01:49:45.735Z,9.26
2023-04-21T01:52:12.593Z,9.26
2023-04-21T01:54:39.268Z,9.13
2023-04-21T01:57:06.964Z,9.04
2023-04-21T01:59:34.013Z,8.99
2023-04-21T02:02:00.784Z,8.91
2023-04-21T02:04:27.825Z,8.87
2023-04-21T02:06:54.912Z,8.79
2023-04-21T02:09:21.853Z,8.73
2023-04-21T02:11:48.710Z,8.67
2023-04-21T02:14:15.519Z,8.66
2023-04-21T02:16:42.468Z,8.63
2023-04-21T02:19:09.340Z,8.58
2023-04-21T02:21:36.021Z,8.52
2023-04-21T02:24:02.866Z,8.48
2023-04-21T02:26:29.593Z,8.46
2023-04-21T02:28:56.304Z,8.38
2023-04-21T02:31:23.260Z,8.44
2023-04-21T02:33:50.205Z,8.34
2023-04-21T02:36:17.178Z,8.28
2023-04-21T02:38:43.929Z,8.27
2023-04-21T02:41:10.900Z,8.30
2023-04-21T02:43:37.692Z,8.27
2023-04-21T02:46:07.999Z,8.22
2023-04-21T02:48:36.045Z,8.22
2023-04-21T02:51:05.745Z,8.16
2023-04-21T02:53:32.551Z,8.06
2023-04-21T02:55:59.345Z,8.00
2023-04-21T02:58:26.301Z,8.02
2023-04-21T03:00:53.531Z,8.02
2023-04-21T03:03:20.676Z,8.10
2023-04-21T03:05:47.503Z,8.08
2023-04-21T03:08:14.567Z,8.02
2023-04-21T03:10:41.672Z,8.02
2023-04-21T03:13:08.401Z,7.93
2023-04-21T03:15:35.536Z,7.94
2023-04-21T03:18:02.292Z,7.98
2023-04-21T03:20:29.340Z,7.98
2023-04-21T03:22:56.212Z,8.01
2023-04-21T03:25:25.330Z,8.10
2023-04-21T03:27:52.477Z,8.09
2023-04-21T03:30:19.165Z,8.06
2023-04-21T03:32:45.921Z,8.08
2023-04-21T03:35:12.796Z,8.10
2023-04-21T03:37:39.793Z,8.10
2023-04-21T03:40:07.292Z,8.10
2023-04-21T03:42:34.376Z,8.15
2023-04-21T03:45:05.793Z,8.08
2023-04-21T03:47:32.649Z,8.16
2023-04-21T03:49:59.459Z,8.06
2023-04-21T03:52:26.549Z,8.10
2023-04-21T03:54:53.200Z,8.06
2023-04-21T03:57:22.992Z,8.07
2023-04-21T03:59:49.738Z,8.11
2023-04-21T04:02:16.605Z,8.18
2023-04-21T04:04:43.873Z,8.17
2023-04-21T04:07:11.071Z,8.22
2023-04-21T04:09:37.801Z,8.19
2023-04-21T04:12:05.056Z,8.19
2023-04-21T04:14:31.793Z,8.17
2023-04-21T04:16:59.281Z,8.20
2023-04-21T04:19:31.795Z,8.26
2023-04-21T04:22:00.157Z,8.31
2023-04-21T04:24:27.005Z,8.31
2023-04-21T04:26:55.000Z,8.28
2023-04-21T04:29:22.726Z,8.36
2023-04-21T04:31:50.379Z,8.35
2023-04-21T04:34:17.546Z,8.39
2023-04-21T04:36:45.082Z,8.36
2023-04-21T04:39:12.475Z,8.36
2023-04-21T04:41:39.779Z,8.43
2023-04-21T04:44:06.810Z,8.43
2023-04-21T04:46:33.748Z,8.53
2023-04-21T04:49:02.106Z,8.49
2023-04-21T04:51:28.945Z,8.61
2023-04-21T04:53:55.664Z,8.70
2023-04-21T04:56:23.732Z,8.73
2023-04-21T04:58:50.514Z,8.77
2023-04-21T05:01:17.706Z,8.75
2023-04-21T05:03:46.199Z,8.82
2023-04-21T05:06:14.414Z,8.90
2023-04-21T05:08:41.680Z,8.99
2023-04-21T05:11:09.264Z,9.00
2023-04-21T05:13:38.304Z,9.15
2023-04-21T05:16:06.977Z,9.25
2023-04-21T05:18:33.858Z,9.35
2023-04-21T05:21:00.666Z,9.52
2023-04-21T05:23:27.851Z,9.69
2023-04-21T05:25:54.480Z,9.82
2023-04-21T05:28:21.358Z,9.89
2023-04-21T05:30:48.109Z,10.03
2023-04-21T05:33:15.130Z,10.18
2023-04-21T05:35:41.915Z,10.34
2023-04-21T05:38:08.634Z,10.43
2023-04-21T05:40:35.490Z,10.49
2023-04-21T05:43:02.364Z,10.55
2023-04-21T05:45:29.477Z,10.65
2023-04-21T05:47:56.552Z,10.73
2023-04-21T05:50:25.763Z,10.83
2023-04-21T05:52:52.874Z,10.88
2023-04-21T05:55:19.760Z,10.95
2023-04-21T05:57:46.860Z,11.02
2023-04-21T06:00:14.456Z,11.14
2023-04-21T06:02:41.332Z,11.28
2023-04-21T06:05:08.472Z,11.43
2023-04-21T06:07:37.417Z,11.60
2023-04-21T06:10:04.583Z,11.72
2023-04-21T06:12:31.297Z,11.87
2023-04-21T06:14:58.253Z,11.92
2023-04-21T06:17:25.779Z,12.05
2023-04-21T06:19:53.474Z,12.24
2023-04-21T06:22:21.022Z,12.31
2023-04-21T06:24:48.214Z,12.40
2023-04-21T06:27:15.211Z,12.59
2023-04-21T06:29:43.944Z,12.66
2023-04-21T06:32:12.453Z,12.79
2023-04-21T06:34:39.570Z,12.87
2023-04-21T06:37:06.688Z,13.06
2023-04-21T06:39:33.657Z,13.14
2023-04-21T06:42:00.931Z,13.13
2023-04-21T06:44:27.873Z,13.21
2023-04-21T06:46:54.613Z,13.30
2023-04-21T06:49:21.554Z,13.42
2023-04-21T06:51:48.502Z,13.42
2023-04-21T06:54:15.358Z,13.42
2023-04-21T06:56:43.391Z,13.43
2023-04-21T06:59:10.495Z,13.39
2023-04-21T07:01:37.435Z,13.37
2023-04-21T07:04:07.499Z,13.39
2023-04-21T07:06:34.420Z,13.49
2023-04-21T07:09:01.191Z,13.71
2023-04-21T07:11:29.008Z,13.93
2023-04-21T07:13:56.046Z,14.04
2023-04-21T07:16:22.880Z,14.27
2023-04-21T07:18:49.721Z,14.49
2023-04-21T07:21:16.402Z,14.60
2023-04-21T07:23:43.173Z,14.65
2023-04-21T07:26:10.522Z,14.95
2023-04-21T07:28:38.409Z,15.10
2023-04-21T07:31:05.082Z,15.16
2023-04-21T07:33:32.059Z,15.25
2023-04-21T07:35:59.049Z,15.48
2023-04-21T07:38:26.413Z,15.87
2023-04-21T07:40:53.286Z,16.24
2023-04-21T07:43:20.230Z,16.56
2023-04-21T07:45:52.248Z,16.75
2023-04-21T07:48:19.733Z,17.02
2023-04-21T07:50:46.721Z,16.98
2023-04-21T07:53:13.485Z,16.53
2023-04-21T07:55:40.463Z,16.26
2023-04-21T07:58:07.624Z,16.17
2023-04-21T08:00:34.748Z,16.03
2023-04-21T08:03:01.880Z,15.96
2023-04-21T08:05:33.287Z,15.55
2023-04-21T08:08:02.116Z,15.26
2023-04-21T08:10:28.973Z,15.11
2023-04-21T08:12:56.203Z,14.88
2023-04-21T08:15:23.042Z,14.89
2023-04-21T08:17:49.865Z,14.85
2023-04-21T08:20:16.816Z,14.81
2023-04-21T08:22:44.881Z,14.85
2023-04-21T08:25:13.588Z,14.89
2023-04-21T08:27:40.395Z,14.79
2023-04-21T08:30:08.175Z,14.74
2023-04-21T08:32:34.898Z,14.79
2023-04-21T08:35:01.949Z,14.92
2023-04-21T08:37:29.372Z,15.13
2023-04-21T08:39:56.272Z,15.32
2023-04-21T08:42:25.168Z,15.51
2023-04-21T08:44:51.858Z,15.50
2023-04-21T08:47:20.795Z,15.43
2023-04-21T08:49:51.498Z,15.29
2023-04-21T08:52:18.226Z,15.31
2023-04-21T08:54:47.507Z,15.47
2023-04-21T08:57:17.536Z,15.53
2023-04-21T08:59:45.144Z,15.62
2023-04-21T09:02:15.788Z,15.59
2023-04-21T09:04:47.344Z,15.60
2023-04-21T09:07:37.775Z,15.60
2023-04-21T09:10:05.903Z,15.62
2023-04-21T09:12:32.628Z,15.55
2023-04-21T09:15:00.914Z,15.38
2023-04-21T09:17:34.417Z,15.43
2023-04-21T09:20:18.727Z,15.41
2023-04-21T09:22:46.012Z,15.71
2023-04-21T09:25:17.912Z,16.44
2023-04-21T09:27:45.747Z,17.01
2023-04-21T09:30:12.531Z,17.33
2023-04-21T09:32:40.958Z,17.49
2023-04-21T09:35:14.026Z,17.81
2023-04-21T09:37:43.966Z,18.00
2023-04-21T09:40:19.165Z,18.13
2023-04-21T09:42:46.356Z,18.06
2023-04-21T09:47:56.760Z,17.96
2023-04-21T09:50:54.251Z,17.92
2023-04-21T09:53:21.987Z,17.84
2023-04-21T09:55:51.948Z,17.71
2023-04-21T09:58:25.020Z,17.55
2023-04-21T10:00:57.455Z,17.42
2023-04-21T10:03:28.869Z,17.24
2023-04-21T10:05:56.437Z,17.06
2023-04-21T10:08:23.344Z,16.75
2023-04-21T10:10:56.653Z,16.58
2023-04-21T10:13:24.073Z,16.62
2023-04-21T10:16:02.937Z,16.60
2023-04-21T10:18:29.793Z,16.64
2023-04-21T10:20:59.592Z,16.67
2023-04-21T10:23:36.071Z,16.64
2023-04-21T10:26:31.467Z,16.64
2023-04-21T10:29:02.325Z,16.81
2023-04-21T10:31:35.016Z,16.85
2023-04-21T10:34:08.009Z,17.02
2023-04-21T10:36:36.058Z,16.96
2023-04-21T10:39:04.378Z,16.84
2023-04-21T10:41:36.169Z,16.80
2023-04-21T10:44:16.623Z,16.88
2023-04-21T10:46:48.020Z,16.82
2023-04-21T10:49:26.567Z,16.90
2023-04-21T10:51:59.791Z,16.91
2023-04-21T10:54:28.195Z,16.86
2023-04-21T10:56:56.486Z,16.64
2023-04-21T10:59:24.638Z,16.53
2023-04-21T11:01:51.994Z,16.67
2023-04-21T11:04:20.935Z,16.83
2023-04-21T11:07:08.167Z,17.04
2023-04-21T11:09:35.924Z,17.23
2023-04-21T11:12:04.635Z,17.39
2023-04-21T11:14:31.669Z,17.51
2023-04-21T11:16:58.550Z,17.74
2023-04-21T11:19:26.474Z,18.02
2023-04-21T11:21:53.703Z,18.11
2023-04-21T11:24:21.730Z,18.24
2023-04-21T11:26:48.779Z,18.37
2023-04-21T11:29:17.032Z,18.85
2023-04-21T11:31:46.837Z,19.09
2023-04-21T11:34:21.143Z,19.16
2023-04-21T11:36:49.035Z,19.23
2023-04-21T11:39:22.138Z,19.26
2023-04-21T11:41:50.922Z,19.24
2023-04-21T11:44:38.403Z,19.30
2023-04-21T11:47:18.843Z,19.28
2023-04-21T11:49:47.119Z,19.29
2023-04-21T11:52:24.584Z,19.21
2023-04-21T11:54:57.086Z,19.02
2023-04-21T11:57:25.579Z,18.68
2023-04-21T11:59:53.280Z,18.45
2023-04-21T12:02:29.361Z,18.36
2023-04-21T12:05:13.283Z,18.06
2023-04-21T12:07:48.747Z,17.89
2023-04-21T12:10:21.110Z,17.76
2023-04-21T12:12:48.812Z,17.52
2023-04-21T12:15:20.443Z,17.31
2023-04-21T12:17:50.034Z,17.20
2023-04-21T12:20:21.178Z,17.10
2023-04-21T12:22:49.428Z,17.10
2023-04-21T12:25:16.477Z,17.25
2023-04-21T12:27:51.105Z,17.35
2023-04-21T12:30:19.359Z,17.66
2023-04-21T12:32:47.667Z,17.65
2023-04-21T12:35:14.765Z,17.82
2023-04-21T12:37:41.763Z,17.89
2023-04-21T12:40:09.149Z,17.92
2023-04-21T12:42:38.901Z,18.02
2023-04-21T12:45:06.874Z,18.20
2023-04-21T12:47:34.879Z,18.35
2023-04-21T12:50:01.612Z,18.24
2023-04-21T12:52:28.410Z,17.87
2023-04-21T12:54:55.561Z,17.98
2023-04-21T12:57:22.403Z,18.07
2023-04-21T12:59:49.796Z,18.21
2023-04-21T13:02:17.211Z,18.47
2023-04-21T13:04:44.147Z,18.45
2023-04-21T13:07:11.260Z,18.57
2023-04-21T13:09:38.663Z,18.79
2023-04-21T13:12:08.206Z,18.97
2023-04-21T13:14:35.046Z,18.79
2023-04-21T13:17:02.070Z,18.63
2023-04-21T13:19:30.060Z,18.20
2023-04-21T13:21:57.371Z,17.92
2023-04-21T13:24:26.302Z,17.47
2023-04-21T13:26:53.242Z,17.06
2023-04-21T13:29:20.501Z,16.89
2023-04-21T13:31:49.728Z,16.89
2023-04-21T13:34:16.504Z,16.83
2023-04-21T13:36:43.433Z,16.66
2023-04-21T13:39:13.168Z,16.49
2023-04-21T13:41:39.860Z,16.41
2023-04-21T13:44:06.985Z,16.22
2023-04-21T13:46:33.716Z,16.25
2023-04-21T13:49:00.866Z,16.15
2023-04-21T13:51:27.753Z,16.28
2023-04-21T13:53:54.633Z,16.25
2023-04-21T13:56:22.084Z,16.27
2023-04-21T13:58:48.979Z,16.19
2023-04-21T14:01:16.131Z,16.06
2023-04-21T14:03:43.049Z,15.96
2023-04-21T14:06:10.146Z,15.97
2023-04-21T14:08:37.295Z,16.06
2023-04-21T14:11:05.209Z,16.07
2023-04-21T14:13:39.490Z,16.08
2023-04-21T14:16:09.095Z,16.24
2023-04-21T14:18:36.586Z,16.35
2023-04-21T14:21:03.600Z,16.36
2023-04-21T14:23:30.583Z,16.29
2023-04-21T14:25:57.667Z,16.30
2023-04-21T14:28:24.383Z,16.25
2023-04-21T14:30:51.248Z,16.28
2023-04-21T14:33:18.276Z,16.34
2023-04-21T14:35:45.094Z,16.29
2023-04-21T14:38:11.824Z,16.11
2023-04-21T14:40:38.660Z,16.28
2023-04-21T14:43:05.599Z,16.18
2023-04-21T14:45:32.723Z,16.24
2023-04-21T14:47:59.898Z,16.45
2023-04-21T14:50:26.814Z,16.58
2023-04-21T14:52:53.712Z,16.59
2023-04-21T14:55:20.454Z,16.40
2023-04-21T14:57:47.235Z,16.31
2023-04-21T15:00:14.890Z,16.17
2023-04-21T15:02:42.369Z,15.83
2023-04-21T15:05:10.146Z,15.65
2023-04-21T15:07:36.943Z,15.56
2023-04-21T15:10:03.974Z,15.40
2023-04-21T15:12:30.822Z,15.26
2023-04-21T15:14:57.690Z,15.10
2023-04-21T15:17:24.700Z,15.00
2023-04-21T15:19:51.549Z,14.80
2023-04-21T15:22:19.090Z,14.68
2023-04-21T15:24:46.718Z,14.71
2023-04-21T15:27:13.428Z,14.74
2023-04-21T15:29:40.695Z,14.81
2023-04-21T15:32:10.346Z,14.83
2023-04-21T15:34:37.148Z,14.65
2023-04-21T15:37:03.929Z,14.58
2023-04-21T15:39:30.574Z,14.53
2023-04-21T15:41:59.367Z,14.44
2023-04-21T15:44:26.448Z,14.45
2023-04-21T15:46:53.312Z,14.44
2023-04-21T15:49:20.202Z,14.42
2023-04-21T15:51:49.733Z,14.33
2023-04-21T15:54:16.469Z,14.29
2023-04-21T15:56:43.250Z,14.21
2023-04-21T15:59:12.971Z,14.20
2023-04-21T16:01:39.855Z,14.17
2023-04-21T16:04:06.799Z,14.14
2023-04-21T16:06:33.775Z,14.17
2023-04-21T16:09:00.996Z,14.15
2023-04-21T16:11:29.585Z,14.16
2023-04-21T16:13:56.583Z,14.14
2023-04-21T16:16:23.402Z,14.11
2023-04-21T16:18:50.249Z,14.12
2023-04-21T16:21:17.252Z,14.04
2023-04-21T16:23:44.237Z,13.96
2023-04-21T16:26:12.170Z,13.77
2023-04-21T16:28:38.873Z,13.79
2023-04-21T16:31:05.954Z,13.67
2023-04-21T16:33:32.886Z,13.54
2023-04-21T16:38:40.449Z,13.53
2023-04-21T16:41:07.338Z,13.54
2023-04-21T16:43:34.383Z,13.51
2023-04-21T16:46:01.352Z,13.44
2023-04-21T16:48:28.156Z,13.39
2023-04-21T16:50:55.346Z,13.37
2023-04-21T16:53:25.405Z,13.30
2023-04-21T16:55:52.352Z,13.19
2023-04-21T16:58:20.380Z,13.15
2023-04-21T17:00:47.275Z,13.07
2023-04-21T17:03:14.168Z,13.00
2023-04-21T17:05:41.523Z,12.88
2023-04-21T17:08:08.251Z,12.81
2023-04-21T17:10:34.973Z,12.74
2023-04-21T17:13:01.966Z,12.65
2023-04-21T17:15:32.885Z,12.62
2023-04-21T17:17:59.659Z,12.52
2023-04-21T17:20:26.570Z,12.42
2023-04-21T17:22:53.324Z,12.48
2023-04-21T17:25:20.291Z,12.31
2023-04-21T17:27:47.016Z,12.22
2023-04-21T17:30:14.052Z,12.15
2023-04-21T17:32:41.146Z,11.95
2023-04-21T17:35:08.121Z,11.90
2023-04-21T17:37:35.082Z,11.79
2023-04-21T17:40:02.999Z,11.80
2023-04-21T17:42:30.313Z,11.64
2023-04-21T17:44:59.381Z,11.53
2023-04-21T17:47:26.227Z,11.42
2023-04-21T17:49:53.359Z,11.34
2023-04-21T17:52:20.075Z,11.23
2023-04-21T17:54:46.898Z,11.15
2023-04-21T17:57:16.093Z,11.06
2023-04-21T17:59:42.964Z,11.07
2023-04-21T18:02:09.809Z,11.05
2023-04-21T18:04:37.155Z,10.97
2023-04-21T18:07:04.132Z,10.92
2023-04-21T18:09:31.726Z,10.82
2023-04-21T18:11:58.521Z,10.64
2023-04-21T18:14:25.819Z,10.53
2023-04-21T18:16:52.695Z,10.49
2023-04-21T18:19:19.508Z,10.43
2023-04-21T18:21:46.468Z,10.28
2023-04-21T18:24:16.077Z,10.21
2023-04-21T18:26:43.679Z,10.15
2023-04-21T18:29:10.464Z,10.16
2023-04-21T18:31:37.803Z,10.03
2023-04-21T18:34:04.532Z,9.97
2023-04-21T18:36:33.724Z,9.89
2023-04-21T18:39:01.230Z,9.84
2023-04-21T18:41:30.201Z,9.75
2023-04-21T18:43:56.885Z,9.69
2023-04-21T18:46:26.750Z,9.51
2023-04-21T18:48:53.455Z,9.47
2023-04-21T18:51:20.208Z,9.48
2023-04-21T18:53:46.901Z,9.43
2023-04-21T18:56:13.965Z,9.28
2023-04-21T18:58:40.759Z,9.23
2023-04-21T19:01:08.155Z,9.22
2023-04-21T19:03:35.179Z,9.25
2023-04-21T19:06:02.294Z,9.18
2023-04-21T19:08:41.456Z,9.16
2023-04-21T19:11:10.513Z,9.23
2023-04-21T19:13:37.544Z,9.21
2023-04-21T19:16:05.406Z,9.14
2023-04-21T19:18:32.128Z,9.05
2023-04-21T19:20:59.012Z,9.05
2023-04-21T19:23:25.743Z,9.05
2023-04-21T19:25:55.094Z,9.08
2023-04-21T19:28:22.209Z,9.01
2023-04-21T19:30:48.974Z,8.96
2023-04-21T19:33:16.120Z,8.93
2023-04-21T19:35:43.026Z,9.02
2023-04-21T19:38:10.377Z,9.07
2023-04-21T19:40:37.285Z,8.99
2023-04-21T19:43:04.778Z,8.91
2023-04-21T19:45:31.833Z,8.85
2023-04-21T19:47:58.784Z,8.78
2023-04-21T19:50:25.493Z,8.80
2023-04-21T19:52:52.636Z,8.84
2023-04-21T19:55:19.506Z,8.85
2023-04-21T19:57:46.356Z,8.83
2023-04-21T20:00:14.187Z,8.91
2023-04-21T20:02:41.084Z,9.00
2023-04-21T20:05:09.584Z,8.88
2023-04-21T20:07:37.317Z,8.92
2023-04-21T20:10:06.085Z,9.00
2023-04-21T20:12:33.311Z,9.04
2023-04-21T20:15:01.440Z,9.02
2023-04-21T20:17:29.182Z,8.98
2023-04-21T20:19:56.065Z,9.03
2023-04-21T20:22:22.806Z,9.10
2023-04-21T20:24:52.109Z,9.07
2023-04-21T20:27:19.356Z,9.05
2023-04-21T20:29:46.973Z,9.04
2023-04-21T20:32:14.013Z,8.93
2023-04-21T20:34:40.925Z,8.96
2023-04-21T20:37:08.017Z,8.96
2023-04-21T20:39:34.805Z,8.77
2023-04-21T20:42:12.391Z,8.64
2023-04-21T20:44:41.344Z,8.57
2023-04-21T20:47:08.523Z,8.54
2023-04-21T20:49:35.886Z,8.38
2023-04-21T20:52:03.011Z,8.36
2023-04-21T20:54:29.903Z,8.36
2023-04-21T20:56:56.913Z,8.37
2023-04-21T20:59:23.847Z,8.33
2023-04-21T21:01:50.830Z,8.31
2023-04-21T21:04:17.623Z,8.30
2023-04-21T21:06:44.754Z,8.29
2023-04-21T21:09:12.150Z,8.24
2023-04-21T21:11:38.869Z,8.18
2023-04-21T21:14:05.723Z,8.17
2023-04-21T21:16:32.815Z,8.28
2023-04-21T21:19:00.172Z,8.28
2023-04-21T21:21:27.300Z,8.19
2023-04-21T21:23:54.075Z,8.17
2023-04-21T21:26:20.917Z,8.18
2023-04-21T21:28:47.631Z,8.15
2023-04-21T21:31:14.306Z,8.10
2023-04-21T21:33:41.076Z,8.08
2023-04-21T21:36:09.297Z,8.00
2023-04-21T21:38:36.230Z,7.95
2023-04-21T21:41:03.097Z,7.93
2023-04-21T21:43:29.831Z,8.05
2023-04-21T21:45:57.083Z,8.06
2023-04-21T21:48:23.946Z,8.09
2023-04-21T21:50:51.017Z,7.97
2023-04-21T21:53:17.886Z,7.91
2023-04-21T21:55:44.886Z,7.89
2023-04-21T21:58:11.948Z,7.90
2023-04-21T22:00:39.506Z,7.90
2023-04-21T22:03:06.655Z,7.79
2023-04-21T22:05:33.786Z,7.72
2023-04-21T22:08:00.580Z,7.71
2023-04-21T22:10:27.919Z,7.70
2023-04-21T22:12:54.635Z,7.67
2023-04-21T22:15:21.642Z,7.62
2023-04-21T22:17:48.429Z,7.60
2023-04-21T22:20:15.460Z,7.55
2023-04-21T22:22:42.724Z,7.54
2023-04-21T22:25:11.061Z,7.56
2023-04-21T22:27:37.820Z,7.55
2023-04-21T22:30:05.345Z,7.54
2023-04-21T22:32:32.515Z,7.48
2023-04-21T22:35:03.082Z,7.48
2023-04-21T22:37:30.220Z,7.52
2023-04-21T22:39:57.696Z,7.54
2023-04-21T22:42:24.951Z,7.46
2023-04-21T22:44:54.050Z,7.56
2023-04-21T22:47:20.896Z,7.55
2023-04-21T22:49:47.688Z,7.49
2023-04-21T22:52:14.431Z,7.51
2023-04-21T22:54:41.440Z,7.53
2023-04-21T22:57:08.363Z,7.51
2023-04-21T22:59:35.465Z,7.51
2023-04-21T23:02:02.317Z,7.39
2023-04-21T23:04:29.486Z,7.35
2023-04-21T23:06:56.328Z,7.41
2023-04-21T23:09:23.964Z,7.41
2023-04-21T23:11:50.708Z,7.47
2023-04-21T23:14:18.031Z,7.44
2023-04-21T23:16:44.976Z,7.42
2023-04-21T23:19:12.510Z,7.43
2023-04-21T23:21:40.452Z,7.46
2023-04-21T23:24:07.376Z,7.54
2023-04-21T23:26:34.069Z,7.53
2023-04-21T23:29:00.894Z,7.44
2023-04-21T23:31:27.768Z,7.41
2023-04-21T23:34:00.133Z,7.41
2023-04-21T23:36:30.155Z,7.46
2023-04-21T23:38:59.857Z,7.47
2023-04-21T23:41:26.898Z,7.47
2023-04-21T23:43:53.824Z,7.50
2023-04-21T23:46:20.524Z,7.57
2023-04-21T23:48:47.604Z,7.60
2023-04-21T23:51:14.366Z,7.60
2023-04-21T23:53:41.144Z,7.64
2023-04-21T23:56:07.885Z,7.65
2023-04-21T23:58:34.765Z,7.62
